sensor_id;sensor_type;location;lat;lon;timestamp;pressure;altitude;pressure_sealevel;temperature;humidity
6899;BME280;3488;42.616;23.350;2023-02-20T00:01:02;63002.19;;;9.74;69.58
6899;BME280;3488;42.616;23.350;2023-02-20T00:03:29;62997.53;;;9.69;70.85
6899;BME280;3488;42.616;23.350;2023-02-20T00:05:56;62990.31;;;9.62;71.58
6899;BME280;3488;42.616;23.350;2023-02-20T00:08:24;62989.25;;;9.61;71.59
6899;BME280;3488;42.616;23.350;2023-02-20T00:10:51;62982.53;;;9.55;72.44
6899;BME280;3488;42.616;23.350;2023-02-20T00:13:20;62982.00;;;9.52;73.08
6899;BME280;3488;42.616;23.350;2023-02-20T00:15:46;62980.47;;;9.53;73.56
6899;BME280;3488;42.616;23.350;2023-02-20T00:18:14;62970.19;;;9.45;74.26
6899;BME280;3488;42.616;23.350;2023-02-20T00:20:41;62966.50;;;9.39;75.57
6899;BME280;3488;42.616;23.350;2023-02-20T00:23:08;62962.91;;;9.35;76.10
6899;BME280;3488;42.616;23.350;2023-02-20T00:25:35;62963.84;;;9.31;76.61
6899;BME280;3488;42.616;23.350;2023-02-20T00:28:02;62952.03;;;9.25;76.97
6899;BME280;3488;42.616;23.350;2023-02-20T00:30:31;62952.63;;;9.28;76.55
6899;BME280;3488;42.616;23.350;2023-02-20T00:32:59;62955.63;;;9.26;75.76
6899;BME280;3488;42.616;23.350;2023-02-20T00:35:26;62952.63;;;9.28;75.25
6899;BME280;3488;42.616;23.350;2023-02-20T00:37:54;62952.56;;;9.25;74.99
6899;BME280;3488;42.616;23.350;2023-02-20T00:40:22;62949.41;;;9.20;75.40
6899;BME280;3488;42.616;23.350;2023-02-20T00:42:50;62951.53;;;9.24;75.15
6899;BME280;3488;42.616;23.350;2023-02-20T00:45:18;62945.88;;;9.21;74.89
6899;BME280;3488;42.616;23.350;2023-02-20T00:47:46;62946.31;;;9.17;73.09
6899;BME280;3488;42.616;23.350;2023-02-20T00:50:15;62955.63;;;9.26;70.26
6899;BME280;3488;42.616;23.350;2023-02-20T00:52:42;62958.19;;;9.28;65.88
6899;BME280;3488;42.616;23.350;2023-02-20T00:55:09;62958.31;;;9.33;65.84
6899;BME280;3488;42.616;23.350;2023-02-20T00:57:36;62954.63;;;9.27;63.91
6899;BME280;3488;42.616;23.350;2023-02-20T01:00:04;62958.31;;;9.33;61.34
6899;BME280;3488;42.616;23.350;2023-02-20T01:02:31;62962.97;;;9.41;61.39
6899;BME280;3488;42.616;23.350;2023-02-20T01:05:04;62965.97;;;9.36;63.73
6899;BME280;3488;42.616;23.350;2023-02-20T01:07:34;62955.63;;;9.26;67.69
6899;BME280;3488;42.616;23.350;2023-02-20T01:10:01;62956.66;;;9.27;69.41
6899;BME280;3488;42.616;23.350;2023-02-20T01:12:28;62954.56;;;9.25;70.86
6899;BME280;3488;42.616;23.350;2023-02-20T01:14:54;62940.22;;;9.16;71.75
6899;BME280;3488;42.616;23.350;2023-02-20T01:17:22;62938.59;;;9.12;72.12
6899;BME280;3488;42.616;23.350;2023-02-20T01:19:49;62934.47;;;9.08;73.98
6899;BME280;3488;42.616;23.350;2023-02-20T01:22:17;62928.81;;;9.02;75.96
6899;BME280;3488;42.616;23.350;2023-02-20T01:24:44;62917.97;;;8.94;78.18
6899;BME280;3488;42.616;23.350;2023-02-20T01:27:11;62913.81;;;8.88;80.34
6899;BME280;3488;42.616;23.350;2023-02-20T01:29:38;62904.09;;;8.83;81.79
6899;BME280;3488;42.616;23.350;2023-02-20T01:32:05;62911.72;;;8.86;82.43
6899;BME280;3488;42.616;23.350;2023-02-20T01:34:32;62918.41;;;8.90;82.55
6899;BME280;3488;42.616;23.350;2023-02-20T01:37:00;62913.81;;;8.88;82.79
6899;BME280;3488;42.616;23.350;2023-02-20T01:39:29;62918.41;;;8.90;82.44
6899;BME280;3488;42.616;23.350;2023-02-20T01:41:58;62920.56;;;8.97;81.17
6899;BME280;3488;42.616;23.350;2023-02-20T01:44:28;62931.75;;;8.98;81.34
6899;BME280;3488;42.616;23.350;2023-02-20T01:46:56;62927.22;;;9.01;82.19
6899;BME280;3488;42.616;23.350;2023-02-20T01:49:30;62933.44;;;9.07;82.15
6899;BME280;3488;42.616;23.350;2023-02-20T01:52:05;62931.91;;;9.05;84.85
6899;BME280;3488;42.616;23.350;2023-02-20T01:54:36;62927.22;;;9.01;85.17
6899;BME280;3488;42.616;23.350;2023-02-20T01:57:06;62922.06;;;8.96;85.94
6899;BME280;3488;42.616;23.350;2023-02-20T01:59:36;62918.97;;;8.93;86.99
6899;BME280;3488;42.616;23.350;2023-02-20T02:02:05;62918.41;;;8.90;87.88
6899;BME280;3488;42.616;23.350;2023-02-20T02:04:35;62906.09;;;8.83;88.09
6899;BME280;3488;42.616;23.350;2023-02-20T02:07:03;62908.09;;;8.80;88.38
6899;BME280;3488;42.616;23.350;2023-02-20T02:09:38;62897.34;;;8.77;88.65
6899;BME280;3488;42.616;23.350;2023-02-20T02:12:07;62883.38;;;8.61;88.72
6899;BME280;3488;42.616;23.350;2023-02-20T02:14:34;62877.63;;;8.53;88.32
6899;BME280;3488;42.616;23.350;2023-02-20T02:17:31;62880.25;;;8.58;84.95
6899;BME280;3488;42.616;23.350;2023-02-20T02:26:06;62871.97;;;8.47;84.43
6899;BME280;3488;42.616;23.350;2023-02-20T02:29:09;62858.50;;;8.32;86.19
6899;BME280;3488;42.616;23.350;2023-02-20T02:37:47;62835.81;;;8.14;80.54
6899;BME280;3488;42.616;23.350;2023-02-20T02:40:23;62837.81;;;8.11;79.70
6899;BME280;3488;42.616;23.350;2023-02-20T02:43:00;62829.09;;;8.05;79.45
6899;BME280;3488;42.616;23.350;2023-02-20T02:45:34;62825.00;;;8.04;77.96
6899;BME280;3488;42.616;23.350;2023-02-20T02:48:10;62827.47;;;8.01;78.29
6899;BME280;3488;42.616;23.350;2023-02-20T02:50:40;62820.81;;;7.97;77.61
6899;BME280;3488;42.616;23.350;2023-02-20T02:53:12;62819.31;;;7.98;76.50
6899;BME280;3488;42.616;23.350;2023-02-20T02:55:39;62828.03;;;8.04;75.14
6899;BME280;3488;42.616;23.350;2023-02-20T02:58:07;62828.50;;;8.02;76.02
6899;BME280;3488;42.616;23.350;2023-02-20T03:00:37;62834.16;;;8.05;75.53
6899;BME280;3488;42.616;23.350;2023-02-20T03:03:08;62821.38;;;8.00;74.35
6899;BME280;3488;42.616;23.350;2023-02-20T03:05:41;62822.88;;;7.99;74.10
6899;BME280;3488;42.616;23.350;2023-02-20T03:08:22;62824.41;;;8.01;73.99
6899;BME280;3488;42.616;23.350;2023-02-20T03:10:58;62815.22;;;7.97;74.82
6899;BME280;3488;42.616;23.350;2023-02-20T03:13:29;62819.25;;;7.96;75.16
6899;BME280;3488;42.616;23.350;2023-02-20T03:16:18;62815.66;;;7.92;75.67
6899;BME280;3488;42.616;23.350;2023-02-20T03:18:48;62813.56;;;7.90;76.33
6899;BME280;3488;42.616;23.350;2023-02-20T03:21:19;62799.69;;;7.79;76.61
6899;BME280;3488;42.616;23.350;2023-02-20T03:23:52;62803.84;;;7.83;77.82
6899;BME280;3488;42.616;23.350;2023-02-20T03:26:25;62804.75;;;7.79;78.74
6899;BME280;3488;42.616;23.350;2023-02-20T03:28:57;62803.22;;;7.78;79.19
6899;BME280;3488;42.616;23.350;2023-02-20T03:31:29;62787.84;;;7.68;79.54
6899;BME280;3488;42.616;23.350;2023-02-20T03:34:00;62796.50;;;7.71;78.61
6899;BME280;3488;42.616;23.350;2023-02-20T03:36:51;62781.56;;;7.59;80.07
6899;BME280;3488;42.616;23.350;2023-02-20T03:39:42;62784.22;;;7.64;80.76
6899;BME280;3488;42.616;23.350;2023-02-20T03:42:30;62787.84;;;7.68;80.95
6899;BME280;3488;42.616;23.350;2023-02-20T03:45:17;62789.38;;;7.69;81.00
6899;BME280;3488;42.616;23.350;2023-02-20T03:47:49;62787.25;;;7.65;81.11
6899;BME280;3488;42.616;23.350;2023-02-20T03:50:18;62789.28;;;7.64;80.00
6899;BME280;3488;42.616;23.350;2023-02-20T03:53:03;62784.16;;;7.62;79.74
6899;BME280;3488;42.616;23.350;2023-02-20T03:55:32;62777.91;;;7.53;79.31
6899;BME280;3488;42.616;23.350;2023-02-20T03:58:01;62774.38;;;7.52;78.98
6899;BME280;3488;42.616;23.350;2023-02-20T04:00:34;62776.41;;;7.54;78.61
6899;BME280;3488;42.616;23.350;2023-02-20T04:03:12;62769.72;;;7.48;76.76
6899;BME280;3488;42.616;23.350;2023-02-20T04:05:43;62764.09;;;7.45;76.84
6899;BME280;3488;42.616;23.350;2023-02-20T04:08:14;62768.69;;;7.47;75.40
6899;BME280;3488;42.616;23.350;2023-02-20T04:10:57;62769.75;;;7.50;75.60
6899;BME280;3488;42.616;23.350;2023-02-20T04:13:25;62773.84;;;7.52;74.42
6899;BME280;3488;42.616;23.350;2023-02-20T04:15:53;62782.56;;;7.58;73.94
6899;BME280;3488;42.616;23.350;2023-02-20T04:18:21;62782.09;;;7.60;73.50
6899;BME280;3488;42.616;23.350;2023-02-20T04:20:52;62784.72;;;7.65;73.83
6899;BME280;3488;42.616;23.350;2023-02-20T04:23:21;62791.91;;;7.69;74.19
6899;BME280;3488;42.616;23.350;2023-02-20T04:25:55;62787.25;;;7.65;74.54
6899;BME280;3488;42.616;23.350;2023-02-20T04:28:24;62787.78;;;7.65;74.87
6899;BME280;3488;42.616;23.350;2023-02-20T04:30:52;62791.38;;;7.69;76.00
6899;BME280;3488;42.616;23.350;2023-02-20T04:33:20;62783.19;;;7.63;76.60
6899;BME280;3488;42.616;23.350;2023-02-20T04:35:47;62780.56;;;7.58;77.50
6899;BME280;3488;42.616;23.350;2023-02-20T04:38:14;62767.69;;;7.48;79.43
6899;BME280;3488;42.616;23.350;2023-02-20T04:40:41;62761.56;;;7.45;79.40
6899;BME280;3488;42.616;23.350;2023-02-20T04:43:10;62756.38;;;7.40;77.28
6899;BME280;3488;42.616;23.350;2023-02-20T04:45:37;62760.91;;;7.37;76.64
6899;BME280;3488;42.616;23.350;2023-02-20T04:48:04;62753.72;;;7.32;76.95
6899;BME280;3488;42.616;23.350;2023-02-20T04:50:33;62749.63;;;7.31;76.73
6899;BME280;3488;42.616;23.350;2023-02-20T04:53:00;62753.16;;;7.29;75.56
6899;BME280;3488;42.616;23.350;2023-02-20T04:55:28;62752.16;;;7.31;74.26
6899;BME280;3488;42.616;23.350;2023-02-20T04:57:55;62752.13;;;7.28;74.75
6899;BME280;3488;42.616;23.350;2023-02-20T05:00:25;62752.72;;;7.34;74.18
6899;BME280;3488;42.616;23.350;2023-02-20T05:02:53;62751.69;;;7.33;72.43
6899;BME280;3488;42.616;23.350;2023-02-20T05:05:21;62754.75;;;7.33;72.35
6899;BME280;3488;42.616;23.350;2023-02-20T05:07:55;62748.59;;;7.30;71.29
6899;BME280;3488;42.616;23.350;2023-02-20T05:10:24;62744.47;;;7.26;70.02
6899;BME280;3488;42.616;23.350;2023-02-20T05:12:51;62745.97;;;7.25;69.16
6899;BME280;3488;42.616;23.350;2023-02-20T05:15:19;62742.31;;;7.19;69.37
6899;BME280;3488;42.616;23.350;2023-02-20T05:17:48;62735.66;;;7.15;69.10
6899;BME280;3488;42.616;23.350;2023-02-20T05:20:16;62734.16;;;7.16;69.30
6899;BME280;3488;42.616;23.350;2023-02-20T05:22:44;62726.47;;;7.11;70.99
6899;BME280;3488;42.616;23.350;2023-02-20T05:25:10;62719.16;;;6.98;72.09
6899;BME280;3488;42.616;23.350;2023-02-20T05:27:38;62720.13;;;6.97;72.62
6899;BME280;3488;42.616;23.350;2023-02-20T05:30:09;62721.16;;;6.98;72.97
6899;BME280;3488;42.616;23.350;2023-02-20T05:32:37;62714.50;;;6.94;74.06
6899;BME280;3488;42.616;23.350;2023-02-20T05:35:06;62720.75;;;7.02;74.24
6899;BME280;3488;42.616;23.350;2023-02-20T05:37:33;62727.34;;;7.04;74.82
6899;BME280;3488;42.616;23.350;2023-02-20T05:40:00;62719.16;;;6.98;75.93
6899;BME280;3488;42.616;23.350;2023-02-20T05:42:28;62725.38;;;7.07;76.90
6899;BME280;3488;42.616;23.350;2023-02-20T05:44:56;62725.91;;;7.07;77.44
6899;BME280;3488;42.616;23.350;2023-02-20T05:47:23;62729.38;;;7.03;78.02
6899;BME280;3488;42.616;23.350;2023-02-20T05:49:49;62714.56;;;6.96;79.04
6899;BME280;3488;42.616;23.350;2023-02-20T05:52:18;62720.69;;;7.00;78.69
6899;BME280;3488;42.616;23.350;2023-02-20T05:54:45;62725.38;;;7.07;73.63
6899;BME280;3488;42.616;23.350;2023-02-20T05:57:14;62734.69;;;7.16;73.67
6899;BME280;3488;42.616;23.350;2023-02-20T05:59:41;62744.41;;;7.23;71.19
6899;BME280;3488;42.616;23.350;2023-02-20T06:02:08;62777.91;;;7.53;61.85
6899;BME280;3488;42.616;23.350;2023-02-20T06:04:35;62799.63;;;7.77;59.62
6899;BME280;3488;42.616;23.350;2023-02-20T06:07:02;62813.06;;;7.90;56.94
6899;BME280;3488;42.616;23.350;2023-02-20T06:09:30;62819.31;;;7.98;55.89
6899;BME280;3488;42.616;23.350;2023-02-20T06:11:58;62818.31;;;8.00;55.27
6899;BME280;3488;42.616;23.350;2023-02-20T06:14:26;62827.47;;;8.01;54.76
6899;BME280;3488;42.616;23.350;2023-02-20T06:16:55;62828.63;;;8.07;54.29
6899;BME280;3488;42.616;23.350;2023-02-20T06:19:23;62830.66;;;8.09;54.96
6899;BME280;3488;42.616;23.350;2023-02-20T06:21:52;62826.50;;;8.03;55.70
6899;BME280;3488;42.616;23.350;2023-02-20T06:24:20;62834.25;;;8.10;55.51
6899;BME280;3488;42.616;23.350;2023-02-20T06:26:49;62844.56;;;8.20;53.95
6899;BME280;3488;42.616;23.350;2023-02-20T06:29:17;62856.50;;;8.35;53.58
6899;BME280;3488;42.616;23.350;2023-02-20T06:31:45;62866.78;;;8.42;53.66
6899;BME280;3488;42.616;23.350;2023-02-20T06:34:12;62876.13;;;8.54;53.14
6899;BME280;3488;42.616;23.350;2023-02-20T06:36:40;62886.50;;;8.66;51.40
6899;BME280;3488;42.616;23.350;2023-02-20T06:39:09;62899.88;;;8.77;52.09
6899;BME280;3488;42.616;23.350;2023-02-20T06:41:36;62905.53;;;8.80;51.29
6899;BME280;3488;42.616;23.350;2023-02-20T06:44:05;62894.63;;;8.67;51.93
6899;BME280;3488;42.616;23.350;2023-02-20T06:46:32;62892.16;;;8.69;52.03
6899;BME280;3488;42.616;23.350;2023-02-20T06:48:58;62887.97;;;8.63;53.77
6899;BME280;3488;42.616;23.350;2023-02-20T06:51:28;62884.41;;;8.62;52.86
6899;BME280;3488;42.616;23.350;2023-02-20T06:53:55;62870.41;;;8.46;53.52
6899;BME280;3488;42.616;23.350;2023-02-20T06:56:25;62858.00;;;8.34;53.68
6899;BME280;3488;42.616;23.350;2023-02-20T06:58:53;62862.66;;;8.38;53.74
6899;BME280;3488;42.616;23.350;2023-02-20T07:01:24;62852.38;;;8.31;54.69
6899;BME280;3488;42.616;23.350;2023-02-20T07:03:53;62851.38;;;8.32;53.35
6899;BME280;3488;42.616;23.350;2023-02-20T07:06:22;62869.22;;;8.37;53.09
6899;BME280;3488;42.616;23.350;2023-02-20T07:08:49;62859.66;;;8.40;51.89
6899;BME280;3488;42.616;23.350;2023-02-20T07:11:18;62869.84;;;8.43;51.41
6899;BME280;3488;42.616;23.350;2023-02-20T07:13:46;62875.59;;;8.51;51.98
6899;BME280;3488;42.616;23.350;2023-02-20T07:16:13;62885.91;;;8.61;52.04
6899;BME280;3488;42.616;23.350;2023-02-20T07:18:42;62880.31;;;8.60;51.49
6899;BME280;3488;42.616;23.350;2023-02-20T07:21:10;62883.88;;;8.61;50.29
6899;BME280;3488;42.616;23.350;2023-02-20T07:23:37;62901.88;;;8.74;48.35
6899;BME280;3488;42.616;23.350;2023-02-20T07:26:04;62894.69;;;8.69;50.62
6899;BME280;3488;42.616;23.350;2023-02-20T07:28:33;62888.56;;;8.68;51.01
6899;BME280;3488;42.616;23.350;2023-02-20T07:31:01;62896.78;;;8.74;47.62
6899;BME280;3488;42.616;23.350;2023-02-20T07:33:28;62898.88;;;8.76;47.85
6899;BME280;3488;42.616;23.350;2023-02-20T07:35:56;62899.84;;;8.74;48.99
6899;BME280;3488;42.616;23.350;2023-02-20T07:38:23;62888.94;;;8.61;50.10
6899;BME280;3488;42.616;23.350;2023-02-20T07:40:50;62883.84;;;8.59;50.41
6899;BME280;3488;42.616;23.350;2023-02-20T07:43:18;62884.38;;;8.59;48.64
6899;BME280;3488;42.616;23.350;2023-02-20T07:45:45;62878.69;;;8.54;48.55
6899;BME280;3488;42.616;23.350;2023-02-20T07:48:12;62893.16;;;8.68;44.68
6899;BME280;3488;42.616;23.350;2023-02-20T07:50:39;62899.81;;;8.72;46.53
6899;BME280;3488;42.616;23.350;2023-02-20T07:53:08;62895.16;;;8.67;46.15
6899;BME280;3488;42.616;23.350;2023-02-20T07:55:39;62895.72;;;8.70;46.04
6899;BME280;3488;42.616;23.350;2023-02-20T07:58:06;62886.94;;;8.62;45.90
6899;BME280;3488;42.616;23.350;2023-02-20T08:00:33;62893.16;;;8.68;46.82
6899;BME280;3488;42.616;23.350;2023-02-20T08:03:00;62888.44;;;8.61;47.68
6899;BME280;3488;42.616;23.350;2023-02-20T08:05:27;62890.09;;;8.67;48.04
6899;BME280;3488;42.616;23.350;2023-02-20T08:07:55;62889.00;;;8.64;47.17
6899;BME280;3488;42.616;23.350;2023-02-20T08:10:26;62894.16;;;8.69;47.14
6899;BME280;3488;42.616;23.350;2023-02-20T08:12:54;62900.78;;;8.70;47.15
6899;BME280;3488;42.616;23.350;2023-02-20T08:15:22;62898.81;;;8.73;46.89
6899;BME280;3488;42.616;23.350;2023-02-20T08:17:48;62901.47;;;8.78;47.55
6899;BME280;3488;42.616;23.350;2023-02-20T08:20:17;62904.50;;;8.79;47.68
6899;BME280;3488;42.616;23.350;2023-02-20T08:22:46;62917.44;;;8.91;48.11
6899;BME280;3488;42.616;23.350;2023-02-20T08:25:13;62931.34;;;9.02;48.07
6899;BME280;3488;42.616;23.350;2023-02-20T08:27:43;62929.81;;;9.03;47.34
6899;BME280;3488;42.616;23.350;2023-02-20T08:30:14;62927.81;;;9.04;47.54
6899;BME280;3488;42.616;23.350;2023-02-20T08:32:41;62922.59;;;8.96;48.05
6899;BME280;3488;42.616;23.350;2023-02-20T08:35:08;62926.66;;;8.95;46.74
6899;BME280;3488;42.616;23.350;2023-02-20T08:37:35;62936.59;;;9.12;47.42
6899;BME280;3488;42.616;23.350;2023-02-20T08:40:03;62949.56;;;9.27;47.93
6899;BME280;3488;42.616;23.350;2023-02-20T08:42:33;62960.31;;;9.33;47.73
6899;BME280;3488;42.616;23.350;2023-02-20T08:45:03;62960.31;;;9.33;46.90
6899;BME280;3488;42.616;23.350;2023-02-20T08:47:31;62966.03;;;9.41;46.20
6899;BME280;3488;42.616;23.350;2023-02-20T08:49:58;62966.59;;;9.44;46.13
6899;BME280;3488;42.616;23.350;2023-02-20T08:52:25;62959.84;;;9.35;46.08
6899;BME280;3488;42.616;23.350;2023-02-20T08:54:52;62965.97;;;9.36;45.72
6899;BME280;3488;42.616;23.350;2023-02-20T08:57:19;62965.94;;;9.33;46.13
6899;BME280;3488;42.616;23.350;2023-02-20T08:59:46;62956.69;;;9.29;46.12
6899;BME280;3488;42.616;23.350;2023-02-20T09:02:19;62965.44;;;9.35;45.94
6899;BME280;3488;42.616;23.350;2023-02-20T09:04:46;62958.19;;;9.28;46.93
6899;BME280;3488;42.616;23.350;2023-02-20T09:07:13;62959.28;;;9.32;46.31
6899;BME280;3488;42.616;23.350;2023-02-20T09:09:40;62956.22;;;9.31;46.33
6899;BME280;3488;42.616;23.350;2023-02-20T09:12:08;62971.66;;;9.42;46.71
6899;BME280;3488;42.616;23.350;2023-02-20T09:14:35;62976.38;;;9.51;46.75
6899;BME280;3488;42.616;23.350;2023-02-20T09:17:03;62979.44;;;9.52;47.25
6899;BME280;3488;42.616;23.350;2023-02-20T09:19:32;62978.88;;;9.49;46.73
6899;BME280;3488;42.616;23.350;2023-02-20T09:21:59;62969.63;;;9.42;47.53
6899;BME280;3488;42.616;23.350;2023-02-20T09:24:26;62978.41;;;9.51;47.18
6899;BME280;3488;42.616;23.350;2023-02-20T09:26:56;62972.22;;;9.45;47.70
6899;BME280;3488;42.616;23.350;2023-02-20T09:29:24;62978.50;;;9.56;47.85
6899;BME280;3488;42.616;23.350;2023-02-20T09:31:51;62960.31;;;9.33;48.01
6899;BME280;3488;42.616;23.350;2023-02-20T09:34:18;62974.81;;;9.47;48.72
6899;BME280;3488;42.616;23.350;2023-02-20T09:36:46;62965.50;;;9.38;48.61
6899;BME280;3488;42.616;23.350;2023-02-20T09:39:14;62969.63;;;9.42;47.54
6899;BME280;3488;42.616;23.350;2023-02-20T09:41:54;62998.00;;;9.67;47.65
6899;BME280;3488;42.616;23.350;2023-02-20T09:44:27;62985.16;;;9.60;47.54
6899;BME280;3488;42.616;23.350;2023-02-20T09:47:02;62978.44;;;9.53;48.04
6899;BME280;3488;42.616;23.350;2023-02-20T09:49:31;62982.06;;;9.57;48.23
6899;BME280;3488;42.616;23.350;2023-02-20T09:52:09;62991.38;;;9.66;47.75
6899;BME280;3488;42.616;23.350;2023-02-20T09:54:42;62998.53;;;9.68;47.30
6899;BME280;3488;42.616;23.350;2023-02-20T09:57:13;63003.28;;;9.77;48.20
6899;BME280;3488;42.616;23.350;2023-02-20T09:59:46;63005.78;;;9.75;47.14
6899;BME280;3488;42.616;23.350;2023-02-20T10:02:16;62999.03;;;9.68;47.38
6899;BME280;3488;42.616;23.350;2023-02-20T10:04:47;63009.97;;;9.81;46.13
6899;BME280;3488;42.616;23.350;2023-02-20T10:07:22;63015.13;;;9.86;46.38
6899;BME280;3488;42.616;23.350;2023-02-20T10:09:51;63016.81;;;9.95;45.50
6899;BME280;3488;42.616;23.350;2023-02-20T10:12:24;63027.50;;;9.96;44.59
6899;BME280;3488;42.616;23.350;2023-02-20T10:15:10;63016.72;;;9.90;43.74
6899;BME280;3488;42.616;23.350;2023-02-20T10:17:49;63033.22;;;10.04;42.78
6899;BME280;3488;42.616;23.350;2023-02-20T10:20:26;63017.19;;;9.88;43.54
6899;BME280;3488;42.616;23.350;2023-02-20T10:23:05;63039.44;;;10.10;42.86
6899;BME280;3488;42.616;23.350;2023-02-20T10:25:37;63036.84;;;10.07;41.84
6899;BME280;3488;42.616;23.350;2023-02-20T10:28:08;63036.41;;;10.09;41.56
6899;BME280;3488;42.616;23.350;2023-02-20T10:30:40;63019.81;;;9.93;42.55
6899;BME280;3488;42.616;23.350;2023-02-20T10:33:20;63028.09;;;10.01;41.80
6899;BME280;3488;42.616;23.350;2023-02-20T10:35:54;63043.59;;;10.14;41.56
6899;BME280;3488;42.616;23.350;2023-02-20T10:38:28;63023.38;;;9.92;41.17
6899;BME280;3488;42.616;23.350;2023-02-20T10:41:03;63029.63;;;10.00;42.00
6899;BME280;3488;42.616;23.350;2023-02-20T10:43:36;63054.97;;;10.25;41.10
6899;BME280;3488;42.616;23.350;2023-02-20T10:46:08;63050.78;;;10.18;40.44
6899;BME280;3488;42.616;23.350;2023-02-20T10:48:39;63050.84;;;10.21;40.77
6899;BME280;3488;42.616;23.350;2023-02-20T10:51:10;63060.66;;;10.30;39.89
6899;BME280;3488;42.616;23.350;2023-02-20T10:53:45;63065.88;;;10.38;40.29
6899;BME280;3488;42.616;23.350;2023-02-20T10:56:18;63086.00;;;10.53;39.75
6899;BME280;3488;42.616;23.350;2023-02-20T10:58:52;63088.03;;;10.55;39.70
6899;BME280;3488;42.616;23.350;2023-02-20T11:01:23;63093.22;;;10.60;38.94
6899;BME280;3488;42.616;23.350;2023-02-20T11:03:55;63083.94;;;10.53;39.60
6899;BME280;3488;42.616;23.350;2023-02-20T11:06:29;63087.56;;;10.57;39.88
6899;BME280;3488;42.616;23.350;2023-02-20T11:08:58;63095.88;;;10.65;39.75
6899;BME280;3488;42.616;23.350;2023-02-20T11:11:30;63089.66;;;10.59;40.79
6899;BME280;3488;42.616;23.350;2023-02-20T11:13:59;63104.66;;;10.73;39.99
6899;BME280;3488;42.616;23.350;2023-02-20T11:16:30;63117.03;;;10.83;40.41
6899;BME280;3488;42.616;23.350;2023-02-20T11:19:05;63105.22;;;10.76;42.12
6899;BME280;3488;42.616;23.350;2023-02-20T11:21:38;63115.47;;;10.81;41.73
6899;BME280;3488;42.616;23.350;2023-02-20T11:24:35;63116.59;;;10.87;42.35
6899;BME280;3488;42.616;23.350;2023-02-20T11:27:05;63138.31;;;11.06;41.20
6899;BME280;3488;42.616;23.350;2023-02-20T11:29:37;63128.38;;;10.91;41.65
6899;BME280;3488;42.616;23.350;2023-02-20T11:32:28;63139.31;;;11.04;41.65
6899;BME280;3488;42.616;23.350;2023-02-20T11:35:20;63131.56;;;10.99;40.50
6899;BME280;3488;42.616;23.350;2023-02-20T11:37:48;63121.28;;;10.94;40.78
6899;BME280;3488;42.616;23.350;2023-02-20T11:40:23;63119.66;;;10.88;41.74
6899;BME280;3488;42.616;23.350;2023-02-20T11:42:52;63120.13;;;10.86;42.27
6899;BME280;3488;42.616;23.350;2023-02-20T11:45:23;63127.97;;;10.96;42.45
6899;BME280;3488;42.616;23.350;2023-02-20T11:48:06;63132.63;;;11.03;42.67
6899;BME280;3488;42.616;23.350;2023-02-20T11:50:39;63156.84;;;11.19;41.26
6899;BME280;3488;42.616;23.350;2023-02-20T11:53:17;63146.13;;;11.18;41.41
6899;BME280;3488;42.616;23.350;2023-02-20T11:55:47;63162.59;;;11.27;41.02
6899;BME280;3488;42.616;23.350;2023-02-20T11:58:21;63147.13;;;11.17;41.33
6899;BME280;3488;42.616;23.350;2023-02-20T12:00:51;63119.72;;;10.90;41.69
6899;BME280;3488;42.616;23.350;2023-02-20T12:03:21;63144.94;;;11.07;41.54
6899;BME280;3488;42.616;23.350;2023-02-20T12:05:50;63144.59;;;11.17;42.15
6899;BME280;3488;42.616;23.350;2023-02-20T12:08:33;63154.91;;;11.24;41.15
6899;BME280;3488;42.616;23.350;2023-02-20T12:11:05;63146.09;;;11.16;41.08
6899;BME280;3488;42.616;23.350;2023-02-20T12:13:37;63171.91;;;11.36;41.64
6899;BME280;3488;42.616;23.350;2023-02-20T12:16:20;63161.56;;;11.26;41.18
6899;BME280;3488;42.616;23.350;2023-02-20T12:18:51;63160.00;;;11.24;41.00
6899;BME280;3488;42.616;23.350;2023-02-20T12:21:30;63143.47;;;11.11;40.88
6899;BME280;3488;42.616;23.350;2023-02-20T12:24:26;63160.03;;;11.27;41.11
6899;BME280;3488;42.616;23.350;2023-02-20T12:26:59;63175.53;;;11.39;40.52
6899;BME280;3488;42.616;23.350;2023-02-20T12:29:40;63185.88;;;11.47;40.70
6899;BME280;3488;42.616;23.350;2023-02-20T12:32:21;63179.22;;;11.45;39.85
6899;BME280;3488;42.616;23.350;2023-02-20T12:35:14;63180.78;;;11.49;40.55
6899;BME280;3488;42.616;23.350;2023-02-20T12:37:51;63175.53;;;11.39;39.99
6899;BME280;3488;42.616;23.350;2023-02-20T12:40:36;63152.38;;;11.24;40.79
6899;BME280;3488;42.616;23.350;2023-02-20T12:43:17;63125.88;;;10.94;41.08
6899;BME280;3488;42.616;23.350;2023-02-20T12:45:51;63159.53;;;11.26;41.41
6899;BME280;3488;42.616;23.350;2023-02-20T12:48:30;63153.88;;;11.23;40.72
6899;BME280;3488;42.616;23.350;2023-02-20T12:51:21;63148.59;;;11.13;41.32
6899;BME280;3488;42.616;23.350;2023-02-20T12:54:02;63155.34;;;11.20;41.23
6899;BME280;3488;42.616;23.350;2023-02-20T12:56:47;63163.63;;;11.28;41.57
6899;BME280;3488;42.616;23.350;2023-02-20T12:59:25;63164.66;;;11.29;41.35
6899;BME280;3488;42.616;23.350;2023-02-20T13:01:54;63161.09;;;11.28;41.47
6899;BME280;3488;42.616;23.350;2023-02-20T13:04:31;63160.03;;;11.27;41.79
6899;BME280;3488;42.616;23.350;2023-02-20T13:07:03;63151.75;;;11.19;41.46
6899;BME280;3488;42.616;23.350;2023-02-20T13:09:34;63151.75;;;11.19;41.36
6899;BME280;3488;42.616;23.350;2023-02-20T13:12:06;63161.09;;;11.28;41.66
6899;BME280;3488;42.616;23.350;2023-02-20T13:14:51;63146.09;;;11.16;41.74
6899;BME280;3488;42.616;23.350;2023-02-20T13:17:28;63149.13;;;11.14;42.04
6899;BME280;3488;42.616;23.350;2023-02-20T13:20:01;63161.09;;;11.28;41.94
6899;BME280;3488;42.616;23.350;2023-02-20T13:22:32;63170.41;;;11.37;41.64
6899;BME280;3488;42.616;23.350;2023-02-20T13:25:30;63178.22;;;11.47;41.73
6899;BME280;3488;42.616;23.350;2023-02-20T13:28:20;63189.56;;;11.55;41.57
6899;BME280;3488;42.616;23.350;2023-02-20T13:31:07;63192.66;;;11.56;41.60
6899;BME280;3488;42.616;23.350;2023-02-20T13:33:37;63196.75;;;11.57;41.70
6899;BME280;3488;42.616;23.350;2023-02-20T13:36:05;63187.44;;;11.51;42.27
6899;BME280;3488;42.616;23.350;2023-02-20T13:38:34;63183.75;;;11.42;42.32
6899;BME280;3488;42.616;23.350;2023-02-20T13:41:06;63174.63;;;11.46;42.25
6899;BME280;3488;42.616;23.350;2023-02-20T13:43:34;63184.41;;;11.53;42.45
6899;BME280;3488;42.616;23.350;2023-02-20T13:46:15;63194.19;;;11.57;42.18
6899;BME280;3488;42.616;23.350;2023-02-20T13:48:54;63186.38;;;11.47;42.19
6899;BME280;3488;42.616;23.350;2023-02-20T13:51:32;63201.97;;;11.65;42.06
6899;BME280;3488;42.616;23.350;2023-02-20T13:54:13;63208.72;;;11.72;42.19